Time;durP1;ratioP1;P1;durP2;ratioP2;P2;SDS_P1;SDS_P2;PMS_P1;PMS_P2;Temp;Humidity;BMP_temperature;BMP_pressure;BME280_temperature;BME280_humidity;BME280_pressure;Samples;Min_cycle;Max_cycle;Signal;HPM_P1;HPM_P2
2023/03/27 00:00:22;;;;;;;8.07;0.82;;;5.40;99.90;;;;;;5052894;28;20155;-79
2023/03/27 00:02:48;;;;;;;6.80;1.30;;;5.40;99.90;;;;;;5052922;28;20064;-79
2023/03/27 00:05:20;;;;;;;4.47;0.75;;;5.40;99.90;;;;;;5054782;28;20044;-79
2023/03/27 00:07:47;;;;;;;4.25;1.27;;;5.30;99.90;;;;;;5053251;28;20079;-79
2023/03/27 00:10:14;;;;;;;8.38;1.10;;;5.30;99.90;;;;;;5054503;28;20044;-79
2023/03/27 00:12:43;;;;;;;8.50;0.90;;;5.30;99.90;;;;;;5053005;28;20056;-78
2023/03/27 00:15:14;;;;;;;8.32;1.33;;;5.30;99.90;;;;;;5052546;28;20083;-78
2023/03/27 00:17:43;;;;;;;7.88;1.35;;;5.20;99.90;;;;;;5053066;28;20099;-79
2023/03/27 00:20:09;;;;;;;6.78;0.88;;;5.20;99.90;;;;;;5052687;28;20106;-79
2023/03/27 00:22:35;;;;;;;8.43;0.73;;;5.20;99.90;;;;;;5053158;28;20068;-79
2023/03/27 00:25:01;;;;;;;6.50;0.80;;;5.20;99.90;;;;;;5053053;28;20432;-79
2023/03/27 00:27:26;;;;;;;7.80;1.92;;;5.20;99.90;;;;;;5052924;28;20058;-79
2023/03/27 00:29:52;;;;;;;7.70;0.98;;;5.20;99.90;;;;;;5052990;28;20396;-79
2023/03/27 00:32:19;;;;;;;6.13;0.90;;;5.10;99.90;;;;;;5052565;28;20045;-79
2023/03/27 00:34:45;;;;;;;6.07;1.17;;;5.20;99.90;;;;;;5052705;28;20074;-79
2023/03/27 00:37:11;;;;;;;4.20;1.15;;;5.20;99.90;;;;;;5052661;28;20389;-79
2023/03/27 00:39:41;;;;;;;8.13;1.40;;;5.20;99.90;;;;;;5053695;28;20041;-79
2023/03/27 00:42:12;;;;;;;7.93;2.20;;;5.10;99.90;;;;;;5052404;28;20107;-79
2023/03/27 00:44:38;;;;;;;2.80;0.55;;;5.20;99.90;;;;;;5052519;28;20049;-79
2023/03/27 00:47:06;;;;;;;7.03;1.20;;;5.20;99.90;;;;;;5052778;28;20438;-79
2023/03/27 00:49:36;;;;;;;4.55;0.98;;;5.10;99.90;;;;;;5052322;28;20392;-79
2023/03/27 00:52:05;;;;;;;6.13;0.95;;;5.10;99.90;;;;;;5052230;28;20167;-79
2023/03/27 00:54:37;;;;;;;7.25;1.25;;;5.10;99.90;;;;;;5052561;28;20476;-79
2023/03/27 00:57:06;;;;;;;5.68;0.93;;;5.00;99.90;;;;;;5052623;28;20036;-79
2023/03/27 00:59:38;;;;;;;10.98;1.20;;;5.10;99.90;;;;;;5052149;28;20041;-79
2023/03/27 01:02:05;;;;;;;6.78;1.30;;;5.10;99.90;;;;;;5052296;28;20480;-79
2023/03/27 01:04:34;;;;;;;8.65;0.98;;;5.00;99.90;;;;;;5052256;28;20496;-79
2023/03/27 01:07:02;;;;;;;10.55;1.20;;;5.00;99.90;;;;;;5052363;28;20384;-78
2023/03/27 01:09:28;;;;;;;6.90;0.82;;;5.00;99.90;;;;;;5051978;28;20142;-78
2023/03/27 01:12:05;;;;;;;3.00;0.60;;;5.10;99.90;;;;;;5051906;28;20083;-78
2023/03/27 01:15:09;;;;;;;4.10;0.73;;;5.10;99.90;;;;;;5052292;28;20489;-78
2023/03/27 01:17:41;;;;;;;;;;;5.10;99.90;;;;;;5052209;28;20044;-78
2023/03/27 01:20:24;;;;;;;9.57;1.10;;;5.20;99.90;;;;;;5051854;28;20363;-78
2023/03/27 01:23:15;;;;;;;4.13;1.08;;;5.10;99.90;;;;;;5052246;28;20052;-78
2023/03/27 01:25:58;;;;;;;5.72;0.70;;;5.20;99.90;;;;;;5053429;28;20502;-78
2023/03/27 01:28:26;;;;;;;6.63;0.90;;;5.20;99.90;;;;;;5057081;28;20412;-79
2023/03/27 01:30:57;;;;;;;4.97;0.90;;;5.20;99.90;;;;;;5056330;28;20115;-79
2023/03/27 01:34:01;;;;;;;4.63;1.33;;;5.20;99.90;;;;;;5057346;28;20451;-79
2023/03/27 01:36:26;;;;;;;;;;;5.30;99.90;;;;;;5041908;28;20045;-79
2023/03/27 01:39:16;;;;;;;9.65;2.17;;;5.30;99.90;;;;;;5055812;28;20418;-79
2023/03/27 01:41:52;;;;;;;5.93;1.08;;;5.30;99.90;;;;;;5056001;28;20045;-79
2023/03/27 01:44:47;;;;;;;7.28;1.00;;;5.30;99.90;;;;;;5056016;28;20087;-79
2023/03/27 01:47:28;;;;;;;9.48;2.65;;;5.30;99.90;;;;;;5056028;28;20041;-79
2023/03/27 01:50:06;;;;;;;6.60;1.05;;;5.20;99.90;;;;;;5057067;28;20044;-79
2023/03/27 01:52:37;;;;;;;6.47;0.98;;;5.10;99.90;;;;;;5055953;28;20049;-79
2023/03/27 01:55:08;;;;;;;4.70;1.10;;;5.00;99.90;;;;;;5055807;28;20132;-79
2023/03/27 01:57:59;;;;;;;6.93;1.90;;;5.00;99.90;;;;;;5056878;28;20052;-79
2023/03/27 02:00:26;;;;;;;6.13;0.60;;;5.00;99.90;;;;;;5055341;28;20488;-79
2023/03/27 02:03:07;;;;;;;2.22;0.47;;;4.90;99.90;;;;;;5055315;28;20129;-79
2023/03/27 02:05:43;;;;;;;5.90;1.00;;;4.90;99.90;;;;;;5055388;28;20067;-79
2023/03/27 02:08:13;;;;;;;9.30;1.05;;;4.80;99.90;;;;;;5055149;28;20464;-79
2023/03/27 02:10:48;;;;;;;5.20;1.20;;;4.70;99.90;;;;;;5055191;28;20132;-79
2023/03/27 02:13:21;;;;;;;8.98;1.90;;;4.70;99.90;;;;;;5055175;28;20048;-79
2023/03/27 02:15:49;;;;;;;6.32;1.40;;;4.80;99.90;;;;;;5055047;28;20404;-79
2023/03/27 02:18:21;;;;;;;4.50;2.25;;;4.80;99.90;;;;;;5055145;28;20330;-79
2023/03/27 02:20:47;;;;;;;8.57;1.52;;;4.80;99.90;;;;;;5054895;28;20476;-78
2023/03/27 02:23:12;;;;;;;10.75;2.92;;;4.80;99.90;;;;;;5055309;28;20102;-79
2023/03/27 02:25:45;;;;;;;4.63;1.20;;;4.80;99.90;;;;;;5055150;28;20053;-79
2023/03/27 02:28:33;;;;;;;7.15;1.67;;;4.90;99.90;;;;;;5056090;28;20084;-79
2023/03/27 02:31:38;;;;;;;4.32;1.05;;;4.90;99.90;;;;;;5055039;28;20055;-78
2023/03/27 02:34:32;;;;;;;7.43;1.08;;;5.00;99.90;;;;;;5051835;28;20052;-78
2023/03/27 02:37:20;;;;;;;12.15;1.40;;;4.90;99.90;;;;;;5054618;28;20480;-78
2023/03/27 02:40:28;;;;;;;9.95;1.02;;;4.90;99.90;;;;;;5054956;28;20044;-78
2023/03/27 02:43:13;;;;;;;9.07;1.10;;;4.90;99.90;;;;;;5049411;28;20057;-78
2023/03/27 02:45:46;;;;;;;7.50;1.30;;;5.00;99.90;;;;;;5054803;28;20043;-78
2023/03/27 02:48:25;;;;;;;14.73;1.63;;;4.90;99.90;;;;;;5054608;28;20444;-78
2023/03/27 02:51:17;;;;;;;14.95;1.63;;;5.00;99.90;;;;;;5054819;28;20075;-79
2023/03/27 02:54:01;;;;;;;4.80;1.20;;;5.00;99.90;;;;;;5054341;28;20116;-79
2023/03/27 02:56:30;;;;;;;;;;;5.00;99.90;;;;;;5054888;28;20045;-79
2023/03/27 02:59:18;;;;;;;7.50;1.42;;;4.90;99.90;;;;;;5054418;28;19925;-79
2023/03/27 03:01:44;;;;;;;8.45;1.67;;;4.90;99.90;;;;;;5054413;28;20071;-79
2023/03/27 03:04:20;;;;;;;6.60;1.73;;;4.90;99.90;;;;;;5054552;28;20044;-78
2023/03/27 03:06:45;;;;;;;7.82;1.30;;;4.90;99.90;;;;;;5054279;28;20076;-79
2023/03/27 03:09:13;;;;;;;5.20;1.90;;;4.90;99.90;;;;;;5054048;28;20091;-79
2023/03/27 03:11:46;;;;;;;6.30;1.77;;;5.00;99.90;;;;;;5054200;28;20060;-79
2023/03/27 03:14:12;;;;;;;4.47;0.80;;;5.00;99.90;;;;;;5055379;28;20040;-78
2023/03/27 03:16:38;;;;;;;6.25;1.40;;;5.10;99.90;;;;;;5053904;28;20126;-78
2023/03/27 03:19:03;;;;;;;9.13;1.40;;;5.10;99.90;;;;;;5054129;28;20077;-79
2023/03/27 03:21:30;;;;;;;10.95;1.95;;;5.10;99.90;;;;;;5054011;28;20504;-78
2023/03/27 03:23:56;;;;;;;2.95;1.13;;;5.20;99.90;;;;;;5054011;28;20102;-78
2023/03/27 03:26:22;;;;;;;11.68;1.58;;;5.20;99.90;;;;;;5053448;28;20450;-78
2023/03/27 03:28:48;;;;;;;6.80;1.40;;;5.20;99.90;;;;;;5053876;28;20056;-78
2023/03/27 03:31:14;;;;;;;22.30;2.67;;;5.10;99.90;;;;;;5053719;28;20045;-78
2023/03/27 03:33:39;;;;;;;9.05;1.73;;;5.10;99.90;;;;;;5053443;28;20048;-78
2023/03/27 03:36:05;;;;;;;6.88;1.27;;;5.10;99.90;;;;;;5053791;28;20051;-78
2023/03/27 03:38:34;;;;;;;13.93;1.30;;;5.00;99.90;;;;;;5053778;28;20036;-78
2023/03/27 03:41:00;;;;;;;3.42;1.02;;;5.10;99.90;;;;;;5053451;28;20055;-78
2023/03/27 03:43:28;;;;;;;8.60;1.00;;;5.10;99.90;;;;;;5053420;28;20076;-78
2023/03/27 03:45:54;;;;;;;5.88;1.00;;;5.10;99.90;;;;;;5053678;28;20051;-78
2023/03/27 03:48:21;;;;;;;4.88;0.90;;;5.10;99.90;;;;;;5053226;28;20442;-78
2023/03/27 03:50:48;;;;;;;7.30;0.80;;;5.00;99.90;;;;;;5052913;28;20043;-78
2023/03/27 03:53:16;;;;;;;3.00;0.55;;;5.00;99.90;;;;;;5053588;28;20039;-78
2023/03/27 03:55:43;;;;;;;6.50;0.90;;;5.00;99.90;;;;;;5053360;28;20037;-78
2023/03/27 03:58:09;;;;;;;6.70;0.80;;;5.00;99.90;;;;;;5053086;28;20175;-78
2023/03/27 04:00:39;;;;;;;4.32;0.90;;;5.00;99.90;;;;;;5053050;28;20079;-78
2023/03/27 04:03:07;;;;;;;0.63;0.38;;;5.00;99.90;;;;;;5053459;28;20037;-78
2023/03/27 04:05:36;;;;;;;7.75;0.75;;;5.00;99.90;;;;;;5053173;28;20052;-78
2023/03/27 04:08:07;;;;;;;6.05;0.90;;;5.00;99.90;;;;;;5052711;28;20056;-78
2023/03/27 04:10:34;;;;;;;2.45;0.52;;;5.00;99.90;;;;;;5052885;28;20037;-78
2023/03/27 04:13:00;;;;;;;3.20;0.50;;;5.10;99.90;;;;;;5053175;28;20064;-78
2023/03/27 04:15:26;;;;;;;1.90;0.25;;;5.00;99.90;;;;;;5053141;28;20219;-78
2023/03/27 04:17:52;;;;;;;2.53;0.60;;;5.00;99.90;;;;;;5053081;28;20515;-78
2023/03/27 04:20:18;;;;;;;3.88;0.65;;;4.90;99.90;;;;;;5052689;28;20400;-78
2023/03/27 04:22:46;;;;;;;2.85;0.50;;;4.90;99.90;;;;;;5052936;28;20559;-78
2023/03/27 04:25:13;;;;;;;3.55;0.68;;;4.70;99.90;;;;;;5052685;28;20370;-78
2023/03/27 04:27:42;;;;;;;3.83;0.43;;;4.60;99.90;;;;;;5059858;22;20056;-77
2023/03/27 04:30:09;;;;;;;3.63;0.73;;;4.60;99.90;;;;;;5052724;28;20052;-78
2023/03/27 04:32:35;;;;;;;2.25;0.30;;;4.50;99.90;;;;;;5053099;28;20110;-78
2023/03/27 04:35:02;;;;;;;2.97;0.50;;;4.40;99.90;;;;;;5052847;28;20048;-78
2023/03/27 04:37:29;;;;;;;3.88;0.60;;;4.30;99.90;;;;;;5052660;28;20518;-78
2023/03/27 04:39:55;;;;;;;4.82;0.50;;;4.30;99.90;;;;;;5052352;28;20072;-78
2023/03/27 04:42:23;;;;;;;4.45;0.45;;;4.30;99.90;;;;;;5052587;28;20080;-78
2023/03/27 04:44:51;;;;;;;4.07;0.35;;;4.20;99.90;;;;;;5052433;28;20036;-78
2023/03/27 04:47:17;;;;;;;4.28;0.75;;;4.20;99.90;;;;;;5052259;28;20400;-78
2023/03/27 04:49:45;;;;;;;3.85;0.60;;;4.20;99.90;;;;;;5052530;28;20453;-79
2023/03/27 04:52:13;;;;;;;4.70;0.63;;;4.20;99.90;;;;;;5054005;28;20124;-79
2023/03/27 04:54:40;;;;;;;11.73;1.60;;;4.10;99.90;;;;;;5052504;28;20049;-78
2023/03/27 04:57:06;;;;;;;9.70;1.00;;;4.20;99.90;;;;;;5052241;28;20049;-79
2023/03/27 04:59:32;;;;;;;10.13;0.95;;;4.20;99.90;;;;;;5052310;28;20139;-79
2023/03/27 05:02:00;;;;;;;7.63;0.68;;;4.20;99.90;;;;;;5052169;28;20063;-78
2023/03/27 05:04:27;;;;;;;4.57;0.38;;;4.20;99.90;;;;;;5052225;28;20040;-78
2023/03/27 05:06:57;;;;;;;2.53;0.70;;;4.20;99.90;;;;;;5052206;28;20045;-78
2023/03/27 05:09:23;;;;;;;6.32;0.60;;;4.30;99.90;;;;;;5053418;28;20048;-78
2023/03/27 05:11:49;;;;;;;4.65;0.68;;;4.40;99.90;;;;;;5052113;28;20033;-78
2023/03/27 05:14:20;;;;;;;1.88;0.30;;;4.30;99.90;;;;;;5052387;28;20124;-78
2023/03/27 05:16:50;;;;;;;3.47;0.63;;;4.30;99.90;;;;;;5052161;28;20045;-78
2023/03/27 05:19:18;;;;;;;6.65;0.60;;;4.30;99.90;;;;;;5052096;28;20131;-78
2023/03/27 05:21:45;;;;;;;1.95;0.28;;;4.20;99.90;;;;;;5051390;28;20052;-78
2023/03/27 05:24:11;;;;;;;5.45;2.05;;;4.20;99.90;;;;;;5052097;28;20053;-79
2023/03/27 05:26:43;;;;;;;4.70;0.63;;;4.20;99.90;;;;;;5051842;28;20057;-78
2023/03/27 05:29:09;;;;;;;3.63;0.80;;;4.20;99.90;;;;;;5051850;28;20052;-78
2023/03/27 05:31:36;;;;;;;5.80;0.63;;;4.30;99.90;;;;;;5051788;28;20045;-78
2023/03/27 05:34:02;;;;;;;5.63;0.93;;;4.20;99.90;;;;;;5052059;28;20047;-78
2023/03/27 05:36:28;;;;;;;5.35;0.80;;;4.20;99.90;;;;;;5051852;28;20045;-78
2023/03/27 05:38:56;;;;;;;3.78;0.90;;;4.20;99.90;;;;;;5051530;28;20369;-78
2023/03/27 05:41:23;;;;;;;1.90;0.60;;;4.30;99.90;;;;;;5051866;28;20511;-78
2023/03/27 05:43:50;;;;;;;3.50;0.88;;;4.40;99.90;;;;;;5051888;28;20487;-79
2023/03/27 05:46:16;;;;;;;5.28;0.82;;;4.50;99.90;;;;;;5051873;28;20044;-78
2023/03/27 05:48:42;;;;;;;10.30;0.93;;;4.60;99.90;;;;;;5051937;28;20391;-78
2023/03/27 05:51:10;;;;;;;5.65;0.73;;;4.70;99.90;;;;;;5051620;28;20044;-79
2023/03/27 05:53:39;;;;;;;5.13;0.60;;;4.70;99.90;;;;;;5051856;28;20044;-78
2023/03/27 05:56:40;;;;;;;6.28;0.93;;;4.80;99.90;;;;;;5066625;22;20076;-78
2023/03/27 05:59:07;;;;;;;8.30;0.75;;;4.80;99.90;;;;;;5051766;28;20124;-78
2023/03/27 06:01:38;;;;;;;6.35;1.02;;;4.90;99.90;;;;;;5052937;28;20085;-78
2023/03/27 06:04:04;;;;;;;11.45;1.48;;;4.90;99.90;;;;;;5051598;28;20534;-78
2023/03/27 06:06:31;;;;;;;6.13;1.10;;;4.90;99.90;;;;;;5051812;28;20053;-78
2023/03/27 06:08:58;;;;;;;5.18;0.60;;;4.90;99.90;;;;;;5051621;28;20047;-78
2023/03/27 06:11:24;;;;;;;5.40;1.10;;;4.90;99.90;;;;;;5051805;28;20465;-78
2023/03/27 06:13:50;;;;;;;7.35;1.98;;;5.00;99.90;;;;;;5054307;28;20408;-78
2023/03/27 06:16:19;;;;;;;8.15;0.65;;;5.00;99.90;;;;;;5055155;28;20468;-79
2023/03/27 06:18:45;;;;;;;7.38;0.60;;;5.10;99.90;;;;;;5055352;28;20067;-78
2023/03/27 06:21:11;;;;;;;5.28;1.73;;;5.10;99.90;;;;;;5054993;28;20115;-79
2023/03/27 06:23:40;;;;;;;10.15;1.63;;;5.10;99.90;;;;;;5061855;22;20061;-79
2023/03/27 06:26:09;;;;;;;6.68;1.40;;;5.10;99.90;;;;;;5055175;28;20091;-79
2023/03/27 06:28:35;;;;;;;5.00;0.73;;;5.10;99.90;;;;;;5054806;28;20473;-79
2023/03/27 06:31:01;;;;;;;4.68;1.00;;;5.10;99.90;;;;;;5054946;28;20045;-78
2023/03/27 06:33:26;;;;;;;6.13;1.23;;;5.10;99.90;;;;;;5054758;28;20518;-79
2023/03/27 06:35:59;;;;;;;4.65;0.63;;;5.10;99.90;;;;;;5055024;28;20048;-79
2023/03/27 06:38:30;;;;;;;14.53;1.40;;;5.10;99.90;;;;;;5055126;28;20064;-79
2023/03/27 06:40:58;;;;;;;10.70;1.48;;;5.20;99.90;;;;;;5054759;28;20041;-79
2023/03/27 06:43:24;;;;;;;7.05;1.02;;;5.20;99.90;;;;;;5054988;28;20484;-79
2023/03/27 06:45:51;;;;;;;16.55;1.27;;;5.30;99.90;;;;;;5054897;28;20071;-78
2023/03/27 06:50:51;;;;;;;5.38;1.33;;;5.20;99.90;;;;;;5074113;28;20491;-78
2023/03/27 06:53:18;;;;;;;5.45;0.82;;;5.20;99.90;;;;;;5074514;28;20056;-79
2023/03/27 06:55:44;;;;;;;5.40;0.93;;;5.30;99.90;;;;;;5074715;28;20036;-78
2023/03/27 06:58:12;;;;;;;3.45;0.68;;;5.40;99.90;;;;;;5074405;28;20400;-79
2023/03/27 07:00:39;;;;;;;7.13;1.58;;;5.50;99.90;;;;;;5075388;28;20048;-78
2023/03/27 07:03:08;;;;;;;4.40;1.35;;;5.70;99.90;;;;;;5074635;28;20040;-78
2023/03/27 07:05:36;;;;;;;3.88;0.70;;;5.70;99.90;;;;;;5074165;28;20040;-78
2023/03/27 07:08:12;;;;;;;5.15;0.80;;;5.60;99.90;;;;;;5074063;28;20533;-78
2023/03/27 07:10:38;;;;;;;4.32;1.25;;;5.30;99.90;;;;;;5074243;28;20123;-79
2023/03/27 07:13:04;;;;;;;3.08;0.75;;;4.90;99.90;;;;;;5074081;28;20204;-78
2023/03/27 07:15:30;;;;;;;6.97;1.00;;;4.70;99.90;;;;;;5074241;28;20127;-79
2023/03/27 07:17:57;;;;;;;4.50;0.85;;;4.50;99.90;;;;;;5073925;28;20044;-78
2023/03/27 07:20:26;;;;;;;6.00;1.00;;;4.20;99.90;;;;;;5073997;28;20404;-78
2023/03/27 07:22:56;;;;;;;5.10;0.77;;;4.10;99.90;;;;;;5074093;28;20044;-79
2023/03/27 07:25:23;;;;;;;6.30;0.73;;;4.10;99.90;;;;;;5075033;28;20083;-80
2023/03/27 07:27:49;;;;;;;5.10;0.98;;;4.10;99.90;;;;;;5073810;28;20130;-79
2023/03/27 07:30:17;;;;;;;5.65;0.75;;;4.20;99.90;;;;;;5073740;28;20507;-79
2023/03/27 07:32:44;;;;;;;4.93;1.20;;;4.40;99.90;;;;;;5073990;28;20040;-79
2023/03/27 07:35:10;;;;;;;7.00;2.03;;;4.50;99.90;;;;;;5073718;28;20056;-85
2023/03/27 07:37:37;;;;;;;5.25;0.68;;;4.70;99.90;;;;;;5065060;28;20040;-79
2023/03/27 07:40:07;;;;;;;5.72;0.73;;;4.70;99.90;;;;;;5053414;28;20049;-79
2023/03/27 07:42:33;;;;;;;7.05;1.13;;;4.80;99.90;;;;;;5052975;28;20041;-80
2023/03/27 07:45:00;;;;;;;4.80;1.30;;;4.80;99.90;;;;;;5053337;28;20076;-79
2023/03/27 07:47:26;;;;;;;7.32;1.20;;;5.00;99.90;;;;;;5053053;28;20048;-79
2023/03/27 07:49:55;;;;;;;6.63;0.77;;;5.10;99.90;;;;;;5052964;28;20057;-79
2023/03/27 07:52:24;;;;;;;7.28;1.40;;;5.30;99.90;;;;;;5069479;28;20048;-82
2023/03/27 07:54:53;;;;;;;10.68;1.30;;;5.40;99.90;;;;;;5052945;28;20041;-83
2023/03/27 07:57:18;;;;;;;9.18;2.38;;;5.50;99.90;;;;;;5052745;28;20580;-79
2023/03/27 07:59:44;;;;;;;12.50;1.77;;;5.70;99.90;;;;;;5052802;28;20127;-79
2023/03/27 08:02:10;;;;;;;4.32;1.60;;;5.90;99.90;;;;;;5052775;28;20094;-79
2023/03/27 08:04:35;;;;;;;13.60;1.98;;;5.90;99.90;;;;;;5053170;28;20083;-79
2023/03/27 08:07:01;;;;;;;3.60;1.00;;;5.90;99.90;;;;;;5052750;28;20049;-80
2023/03/27 08:09:27;;;;;;;5.28;0.85;;;5.80;99.90;;;;;;5052680;28;20048;-79
2023/03/27 08:11:52;;;;;;;2.72;0.77;;;5.80;99.90;;;;;;5052736;28;20049;-83
2023/03/27 08:14:18;;;;;;;4.93;1.10;;;5.80;99.90;;;;;;5052703;28;20078;-82
2023/03/27 08:16:43;;;;;;;4.38;0.95;;;5.90;99.90;;;;;;5053042;28;20049;-82
2023/03/27 08:19:10;;;;;;;7.57;1.40;;;6.00;99.90;;;;;;5052544;28;20053;-81
2023/03/27 08:21:36;;;;;;;8.65;0.52;;;6.10;99.90;;;;;;5052753;28;20049;-82
2023/03/27 08:24:06;;;;;;;6.68;0.93;;;6.20;99.90;;;;;;5052359;28;20527;-83
2023/03/27 08:26:35;;;;;;;3.33;0.50;;;6.20;99.90;;;;;;5052429;28;20088;-82
2023/03/27 08:29:00;;;;;;;2.35;0.60;;;6.20;99.90;;;;;;5060560;28;20372;-81
2023/03/27 08:31:29;;;;;;;6.32;0.82;;;6.30;99.90;;;;;;5072241;28;20086;-82
2023/03/27 08:33:55;;;;;;;3.83;0.70;;;6.50;99.90;;;;;;5072247;28;20119;-82
2023/03/27 08:36:25;;;;;;;5.05;0.50;;;6.40;99.90;;;;;;5071466;28;20131;-81
2023/03/27 08:38:53;;;;;;;5.95;0.60;;;6.60;99.90;;;;;;5069842;28;20048;-81
2023/03/27 08:41:26;;;;;;;2.33;0.85;;;6.60;99.90;;;;;;5071758;28;20047;-82
2023/03/27 08:43:55;;;;;;;8.90;0.90;;;6.80;99.90;;;;;;5069488;28;20047;-81
2023/03/27 08:46:42;;;;;;;3.30;0.40;;;6.80;99.90;;;;;;5071691;28;20040;-80
2023/03/27 08:49:18;;;;;;;4.35;0.70;;;6.90;99.90;;;;;;5071210;28;20094;-80
2023/03/27 08:51:51;;;;;;;2.67;0.63;;;7.10;99.90;;;;;;5071802;28;20113;-79
2023/03/27 08:54:23;;;;;;;5.47;0.85;;;7.10;99.90;;;;;;5071534;28;20570;-80
2023/03/27 08:56:49;;;;;;;2.60;0.50;;;7.00;99.90;;;;;;5085897;28;20040;-80
2023/03/27 08:59:19;;;;;;;5.03;0.68;;;7.00;99.90;;;;;;5072577;28;20078;-82
2023/03/27 09:02:00;;;;;;;2.13;0.17;;;7.10;99.90;;;;;;5071691;28;20487;-81
2023/03/27 09:04:47;;;;;;;3.53;0.55;;;7.20;99.90;;;;;;5071549;28;20115;-80
2023/03/27 09:07:26;;;;;;;6.78;0.90;;;7.10;99.90;;;;;;5069628;28;20484;-81
2023/03/27 09:10:14;;;;;;;6.57;1.15;;;7.20;99.90;;;;;;5069350;28;20032;-81
2023/03/27 09:13:10;;;;;;;3.08;0.55;;;7.30;99.90;;;;;;5070151;28;20071;-81
2023/03/27 09:16:10;;;;;;;5.78;1.05;;;7.40;99.90;;;;;;5070027;28;20040;-81
2023/03/27 09:18:48;;;;;;;3.42;0.60;;;7.40;99.90;;;;;;5047160;28;20132;-80
2023/03/27 09:21:24;;;;;;;5.97;0.50;;;7.30;99.90;;;;;;5069260;28;20547;-83
2023/03/27 09:23:54;;;;;;;3.33;0.65;;;7.20;99.90;;;;;;5071772;28;20067;-78
2023/03/27 09:26:24;;;;;;;6.35;1.23;;;7.30;99.90;;;;;;5071788;28;20057;-80
2023/03/27 09:29:20;;;;;;;5.22;0.63;;;7.40;99.90;;;;;;5071955;28;20052;-82
2023/03/27 09:31:50;;;;;;;2.90;0.30;;;7.60;99.90;;;;;;5071209;28;20054;-83
2023/03/27 09:34:28;;;;;;;4.70;1.45;;;7.60;99.90;;;;;;5063632;28;20456;-83
2023/03/27 09:36:54;;;;;;;3.03;0.88;;;7.50;99.90;;;;;;5071733;28;20044;-83
2023/03/27 09:39:37;;;;;;;4.72;0.88;;;7.60;99.90;;;;;;5071602;28;20507;-81
2023/03/27 09:42:10;;;;;;;7.63;1.30;;;7.70;99.90;;;;;;5071573;28;20090;-81
2023/03/27 09:44:37;;;;;;;;;;;7.50;99.90;;;;;;5073140;28;20442;-82
2023/03/27 09:47:16;;;;;;;4.68;0.68;;;7.50;99.90;;;;;;5071696;28;20454;-81
2023/03/27 09:49:49;;;;;;;9.98;0.98;;;7.40;99.90;;;;;;5075476;28;20111;-82
2023/03/27 09:52:35;;;;;;;4.38;0.70;;;7.60;99.90;;;;;;5075633;28;20136;-82
2023/03/27 09:55:01;;;;;;;4.70;0.77;;;7.70;99.90;;;;;;5075380;28;20045;-82
2023/03/27 09:57:34;;;;;;;2.58;0.30;;;7.80;99.90;;;;;;5075185;28;20407;-82
2023/03/27 10:00:08;;;;;;;2.70;0.70;;;8.00;99.90;;;;;;5073655;28;20075;-82
2023/03/27 10:02:36;;;;;;;7.60;1.33;;;8.00;99.90;;;;;;5064590;28;20052;-83
2023/03/27 10:05:14;;;;;;;3.20;0.35;;;8.10;99.90;;;;;;5075642;28;20044;-81
2023/03/27 10:07:41;;;;;;;4.20;0.63;;;8.10;99.90;;;;;;5074839;28;20448;-82
2023/03/27 10:10:12;;;;;;;2.85;0.60;;;8.00;99.90;;;;;;5075045;28;20495;-82
2023/03/27 10:12:39;;;;;;;3.80;0.43;;;8.10;99.90;;;;;;5076466;28;20047;-83
2023/03/27 10:15:24;;;;;;;3.33;0.65;;;8.20;99.90;;;;;;5075299;28;20053;-82
2023/03/27 10:17:53;;;;;;;6.18;0.70;;;8.40;99.90;;;;;;5074430;28;20051;-82
2023/03/27 10:20:23;;;;;;;2.50;0.50;;;8.40;99.90;;;;;;5074474;28;20041;-81
2023/03/27 10:22:59;;;;;;;6.03;0.80;;;8.50;99.90;;;;;;5074553;28;20048;-81
2023/03/27 10:25:47;;;;;;;6.95;0.98;;;8.40;99.90;;;;;;5074473;28;20047;-81
2023/03/27 10:28:35;;;;;;;6.15;0.57;;;8.40;99.90;;;;;;5074735;28;20070;-81
2023/03/27 10:31:23;;;;;;;8.48;1.00;;;8.50;99.90;;;;;;5074937;28;20052;-82
2023/03/27 10:33:52;;;;;;;5.88;1.15;;;8.60;99.90;;;;;;5073567;28;20045;-81
2023/03/27 10:36:19;;;;;;;8.93;1.30;;;8.40;99.90;;;;;;5075796;28;20040;-82
2023/03/27 10:38:59;;;;;;;5.45;0.88;;;8.30;99.90;;;;;;5075911;28;20048;-81
2023/03/27 10:41:26;;;;;;;4.65;0.90;;;8.30;99.90;;;;;;5074394;28;20055;-82
2023/03/27 10:43:53;;;;;;;5.35;0.82;;;8.30;99.90;;;;;;5074599;28;20099;-82
2023/03/27 10:46:22;;;;;;;4.78;0.60;;;8.50;99.90;;;;;;5074701;28;20049;-83
2023/03/27 10:48:56;;;;;;;5.82;1.58;;;8.20;99.90;;;;;;5074246;28;20067;-82
2023/03/27 10:51:51;;;;;;;4.15;0.70;;;7.80;99.90;;;;;;5075588;28;20052;-81
2023/03/27 10:54:42;;;;;;;3.90;0.80;;;7.70;99.90;;;;;;5065748;28;20048;-82
2023/03/27 10:57:26;;;;;;;5.53;0.50;;;7.40;99.90;;;;;;5074251;28;20049;-81
2023/03/27 11:00:00;;;;;;;2.22;0.45;;;7.50;99.90;;;;;;5073942;28;20036;-81
2023/03/27 11:02:50;;;;;;;5.18;0.52;;;7.60;99.90;;;;;;5074138;28;20052;-82
2023/03/27 11:05:22;;;;;;;6.43;1.02;;;7.60;99.90;;;;;;5074102;28;20079;-82
2023/03/27 11:07:56;;;;;;;8.68;1.15;;;7.70;99.90;;;;;;5074162;28;20082;-81
2023/03/27 11:10:30;;;;;;;2.67;0.40;;;7.90;99.90;;;;;;5054292;28;20091;-81
2023/03/27 11:13:05;;;;;;;7.57;0.88;;;8.10;99.90;;;;;;5054168;28;20041;-82
2023/03/27 11:15:46;;;;;;;6.25;0.90;;;7.90;99.90;;;;;;5053852;28;20045;-80
2023/03/27 11:18:19;;;;;;;2.17;0.50;;;8.00;99.90;;;;;;5053711;28;20060;-80
2023/03/27 11:21:00;;;;;;;5.43;0.73;;;8.20;99.90;;;;;;5053720;28;20484;-81
2023/03/27 11:23:38;;;;;;;1.50;0.40;;;8.30;99.90;;;;;;5053793;28;20041;-82
2023/03/27 11:26:05;;;;;;;3.45;0.63;;;8.40;99.90;;;;;;5054950;28;20551;-77
2023/03/27 11:29:00;;;;;;;7.95;0.70;;;8.30;99.90;;;;;;5055001;28;20163;-77
2023/03/27 11:31:33;;;;;;;4.53;1.08;;;8.30;99.90;;;;;;5053506;28;20041;-83
2023/03/27 11:34:36;;;;;;;5.00;0.65;;;8.30;99.90;;;;;;5053523;28;20040;-79
2023/03/27 11:37:21;;;;;;;6.85;0.90;;;8.50;99.90;;;;;;5041663;28;20191;-79
2023/03/27 11:39:59;;;;;;;2.78;0.52;;;8.50;99.90;;;;;;5053334;28;20132;-79
2023/03/27 11:42:31;;;;;;;3.47;0.60;;;8.80;99.90;;;;;;5054537;28;20380;-78
2023/03/27 11:44:57;;;;;;;8.32;1.00;;;8.90;99.90;;;;;;5053243;28;20048;-78
2023/03/27 11:47:44;;;;;;;5.68;1.13;;;9.00;99.90;;;;;;5053563;28;20051;-78
2023/03/27 11:50:42;;;;;;;5.70;0.80;;;8.80;99.90;;;;;;5053033;28;20076;-78
2023/03/27 11:53:20;;;;;;;2.90;0.80;;;8.80;99.90;;;;;;5053546;28;20076;-78
2023/03/27 11:56:16;;;;;;;7.35;0.93;;;8.90;99.90;;;;;;5053295;28;20521;-77
2023/03/27 11:59:19;;;;;;;5.50;0.57;;;8.90;99.90;;;;;;5057156;28;20181;-78
2023/03/27 12:02:27;;;;;;;8.50;1.20;;;9.00;99.90;;;;;;5073175;28;20051;-78
2023/03/27 12:05:38;;;;;;;3.75;0.60;;;9.00;99.90;;;;;;5065847;28;20061;-76
2023/03/27 12:08:04;;;;;;;6.30;0.90;;;8.70;99.90;;;;;;5074278;28;20049;-77
2023/03/27 12:10:32;;;;;;;7.88;1.10;;;8.50;99.90;;;;;;5072062;28;20056;-77
2023/03/27 12:13:21;;;;;;;5.57;0.77;;;8.30;99.90;;;;;;5072923;28;20045;-76
2023/03/27 12:16:14;;;;;;;5.43;0.80;;;8.30;99.90;;;;;;5072734;28;20052;-78
2023/03/27 12:19:13;;;;;;;6.65;0.50;;;8.20;99.90;;;;;;5045642;28;20092;-76
2023/03/27 12:22:06;;;;;;;3.88;0.45;;;8.00;99.90;;;;;;5052535;28;20436;-77
2023/03/27 12:24:39;;;;;;;5.90;0.93;;;8.10;99.90;;;;;;5052963;28;20084;-77
2023/03/27 12:27:17;;;;;;;3.00;0.63;;;8.20;99.90;;;;;;5052573;28;20041;-76
2023/03/27 12:30:04;;;;;;;8.20;1.13;;;8.20;99.90;;;;;;5052397;28;20090;-80
2023/03/27 12:32:42;;;;;;;9.07;1.30;;;8.20;99.90;;;;;;5052698;28;20091;-78
2023/03/27 12:35:17;;;;;;;6.15;1.02;;;8.30;99.90;;;;;;5052686;28;20041;-79
2023/03/27 12:38:03;;;;;;;6.15;0.93;;;8.30;99.90;;;;;;5052636;28;20041;-78
2023/03/27 12:40:31;;;;;;;6.18;0.75;;;8.40;99.90;;;;;;5052186;28;20059;-78
2023/03/27 12:43:25;;;;;;;7.55;0.75;;;8.50;99.90;;;;;;5052491;28;20041;-76
2023/03/27 12:46:31;;;;;;;9.40;0.90;;;8.60;99.90;;;;;;5052361;28;20045;-84
2023/03/27 12:49:01;;;;;;;5.68;1.30;;;8.80;99.90;;;;;;4995163;28;20061;-78
2023/03/27 12:51:56;;;;;;;7.05;1.42;;;8.80;99.90;;;;;;5061144;28;20048;-77
2023/03/27 12:54:30;;;;;;;12.80;1.45;;;8.60;99.90;;;;;;5052412;28;20076;-80
2023/03/27 12:57:21;;;;;;;10.27;1.05;;;8.00;99.90;;;;;;5052386;28;20095;-77
2023/03/27 13:00:07;;;;;;;3.83;0.82;;;7.60;99.90;;;;;;5052215;28;20514;-77
2023/03/27 13:02:55;;;;;;;3.88;0.68;;;7.20;99.90;;;;;;5052032;28;20494;-76
2023/03/27 13:05:29;;;;;;;4.50;0.70;;;6.90;99.90;;;;;;5052142;28;20072;-76
2023/03/27 13:08:07;;;;;;;7.47;0.77;;;6.60;99.90;;;;;;5051970;28;20041;-76
2023/03/27 13:10:53;;;;;;;4.60;0.50;;;6.30;99.90;;;;;;5056574;28;20044;-76
2023/03/27 13:13:43;;;;;;;6.60;0.80;;;6.40;99.90;;;;;;5071914;28;20099;-77
2023/03/27 13:16:29;;;;;;;6.43;1.23;;;6.60;99.90;;;;;;5071966;28;20128;-77
2023/03/27 13:19:18;;;;;;;5.32;0.70;;;7.00;99.90;;;;;;5071867;28;20045;-76
2023/03/27 13:22:10;;;;;;;8.40;0.98;;;7.30;99.90;;;;;;5073153;28;20381;-78
2023/03/27 13:24:58;;;;;;;5.63;0.93;;;7.50;99.90;;;;;;5078564;28;20052;-77
2023/03/27 13:27:48;;;;;;;2.88;0.77;;;7.70;99.90;;;;;;5079047;28;20056;-77
2023/03/27 13:30:51;;;;;;;5.28;0.73;;;7.80;99.90;;;;;;5078534;28;20041;-77
2023/03/27 13:33:23;;;;;;;4.90;1.10;;;7.80;99.90;;;;;;5041051;28;20057;-76